Time;durP1;ratioP1;P1;durP2;ratioP2;P2;SDS_P1;SDS_P2;PMS_P1;PMS_P2;Temp;Humidity;BMP_temperature;BMP_pressure;BME280_temperature;BME280_humidity;BME280_pressure;Samples;Min_cycle;Max_cycle;Signal;HPM_P1;HPM_P2
2022/10/15 04:20:18;;;;;;;40.00;26.87;;;;;;;10.86;82.36;100698.22;5615776;31;199045;-57
2022/10/15 04:23:22;;;;;;;37.25;25.70;;;;;;;10.86;82.36;100698.22;5603376;31;33398;-57
2022/10/15 04:26:29;;;;;;;39.92;26.42;;;;;;;10.25;84.41;100701.00;5603530;31;33355;-58
2022/10/15 04:29:33;;;;;;;38.97;26.27;;;;;;;10.43;83.89;100711.22;5603534;31;33317;-57
2022/10/15 04:32:40;;;;;;;33.75;26.67;;;;;;;10.39;83.73;100710.12;5603734;31;33286;-58
2022/10/15 04:35:43;;;;;;;32.85;25.08;;;;;;;10.50;83.36;100713.62;5603743;31;34400;-57
2022/10/15 04:38:45;;;;;;;32.88;24.37;;;;;;;10.55;82.63;100710.91;5603391;31;34158;-57
2022/10/15 04:41:48;;;;;;;33.67;24.80;;;;;;;10.45;82.91;100725.13;5603458;31;33540;-57
2022/10/15 04:44:51;;;;;;;33.58;24.63;;;;;;;10.51;82.52;100729.41;5603359;31;33636;-57
2022/10/15 04:47:53;;;;;;;34.50;26.33;;;;;;;10.54;82.42;100723.50;5602366;31;34239;-58
2022/10/15 04:51:06;;;;;;;37.17;26.83;;;;;;;10.52;82.05;100720.28;5603594;31;34237;-58
2022/10/15 04:54:10;;;;;;;29.35;24.37;;;;;;;10.45;82.37;100717.09;5603462;31;33315;-58
2022/10/15 04:57:20;;;;;;;38.42;25.88;;;;;;;10.49;82.22;100720.81;5602427;31;33612;-57
2022/10/15 05:00:23;;;;;;;33.15;24.77;;;;;;;10.58;82.17;100724.56;5602822;31;33329;-58
2022/10/15 05:03:29;;;;;;;36.13;26.15;;;;;;;10.51;82.21;100713.31;5602912;31;33547;-58
2022/10/15 05:06:32;;;;;;;30.98;25.42;;;;;;;10.51;82.43;100715.22;5602863;31;33266;-58
2022/10/15 05:09:36;;;;;;;36.70;26.10;;;;;;;10.59;82.19;100717.31;5602832;31;33563;-58
2022/10/15 05:12:43;;;;;;;36.47;26.92;;;;;;;10.56;82.25;100720.53;5603023;31;34167;-58
2022/10/15 05:15:45;;;;;;;35.33;27.98;;;;;;;10.50;82.69;100724.34;5603095;31;34212;-58
2022/10/15 05:18:49;;;;;;;35.15;26.50;;;;;;;10.53;82.91;100729.97;5602919;31;34182;-58
2022/10/15 05:21:52;;;;;;;36.33;27.00;;;;;;;10.51;83.21;100728.63;5603034;31;33433;-58
2022/10/15 05:24:56;;;;;;;31.83;25.95;;;;;;;10.55;83.18;100732.34;5603099;31;33131;-58
2022/10/15 05:27:58;;;;;;;35.63;27.40;;;;;;;10.63;83.10;100731.81;5602925;31;33314;-58
2022/10/15 05:31:05;;;;;;;37.80;27.30;;;;;;;10.64;83.09;100725.37;5592789;31;34364;-58
2022/10/15 05:34:07;;;;;;;33.55;26.45;;;;;;;10.73;83.15;100725.63;5589544;31;33544;-58
2022/10/15 05:37:10;;;;;;;36.75;27.42;;;;;;;11.02;82.06;100723.88;5590021;31;34110;-58
2022/10/15 05:40:13;;;;;;;35.75;26.58;;;;;;;10.93;82.78;100719.41;5589582;31;33573;-58
2022/10/15 05:43:25;;;;;;;38.47;27.62;;;;;;;11.06;82.43;100724.16;5589515;31;33823;-58
2022/10/15 05:46:27;;;;;;;41.37;27.70;;;;;;;11.05;82.95;100717.19;5589532;31;34316;-59
2022/10/15 05:49:30;;;;;;;41.47;28.27;;;;;;;11.05;83.51;100714.50;5589390;31;33661;-58
2022/10/15 05:52:32;;;;;;;35.08;26.50;;;;;;;10.98;84.39;100716.69;5589004;31;34244;-58
2022/10/15 05:55:35;;;;;;;39.35;28.62;;;;;;;10.98;84.30;100727.41;5589506;31;33215;-58
2022/10/15 05:58:38;;;;;;;34.30;27.42;;;;;;;11.03;84.75;100724.72;5589226;31;33833;-58
2022/10/15 06:01:40;;;;;;;43.13;27.92;;;;;;;11.08;85.10;100734.63;5589228;31;34249;-58
2022/10/15 06:04:42;;;;;;;36.05;26.05;;;;;;;11.11;85.07;100726.03;5588984;31;33476;-57
2022/10/15 06:07:44;;;;;;;47.42;28.45;;;;;;;11.06;85.69;100734.91;5588788;31;33630;-58
2022/10/15 06:10:47;;;;;;;37.95;26.98;;;;;;;11.07;86.18;100733.03;5588674;31;34550;-57
2022/10/15 06:13:49;;;;;;;34.58;27.05;;;;;;;11.21;85.60;100742.88;5589213;31;34269;-58
2022/10/15 06:16:53;;;;;;;37.50;27.37;;;;;;;11.32;85.34;100750.88;5589021;31;33656;-58
2022/10/15 06:19:55;;;;;;;35.35;26.52;;;;;;;11.34;85.55;100751.41;5588668;31;34327;-58
2022/10/15 06:22:59;;;;;;;39.60;26.90;;;;;;;11.38;86.43;100758.63;5589007;31;34278;-58
2022/10/15 06:26:06;;;;;;;34.53;26.95;;;;;;;11.46;86.94;100759.94;5589298;31;34180;-58
2022/10/15 06:29:09;;;;;;;39.97;27.92;;;;;;;11.58;87.52;100763.09;5589282;31;33718;-58
2022/10/15 06:32:11;;;;;;;43.00;28.05;;;;;;;11.79;86.33;100768.34;5589239;31;33513;-58
2022/10/15 06:35:16;;;;;;;37.15;27.52;;;;;;;11.86;87.56;100767.00;5588939;31;33695;-58
2022/10/15 06:38:18;;;;;;;38.42;28.17;;;;;;;11.83;87.81;100766.72;5589178;31;33161;-58
2022/10/15 06:41:21;;;;;;;41.37;29.67;;;;;;;11.92;88.34;100771.25;5587581;31;34270;-58
2022/10/15 06:44:23;;;;;;;34.05;24.87;;;;;;;12.05;87.89;100774.38;5588914;31;33465;-58
2022/10/15 06:47:26;;;;;;;37.72;26.90;;;;;;;12.22;85.65;100770.22;5588975;31;33620;-58
2022/10/15 06:50:28;;;;;;;37.28;26.62;;;;;;;12.37;86.46;100779.22;5588292;31;33653;-57
2022/10/15 06:53:30;;;;;;;36.03;25.92;;;;;;;12.41;86.78;100781.06;5587454;31;34319;-58
2022/10/15 06:56:32;;;;;;;42.88;26.62;;;;;;;12.54;85.68;100784.19;5561684;31;34543;-58
2022/10/15 06:59:37;;;;;;;33.10;24.40;;;;;;;12.56;85.25;100782.81;5557174;32;33633;-58
2022/10/15 07:02:42;;;;;;;36.80;26.20;;;;;;;12.63;83.49;100783.28;5558594;32;34505;-58
2022/10/15 07:05:45;;;;;;;39.08;25.98;;;;;;;12.79;81.85;100783.16;5548154;32;33768;-58
2022/10/15 07:08:47;;;;;;;33.45;24.12;;;;;;;12.90;82.54;100785.44;5548104;32;33936;-58
2022/10/15 07:11:49;;;;;;;36.63;24.70;;;;;;;12.89;82.79;100797.28;5548050;32;34276;-58
2022/10/15 07:14:51;;;;;;;35.75;23.77;;;;;;;12.97;81.81;100787.78;5547865;32;34343;-58
2022/10/15 07:17:55;;;;;;;38.88;25.98;;;;;;;13.07;81.10;100793.03;5546611;32;33408;-58
2022/10/15 07:20:57;;;;;;;31.30;22.58;;;;;;;13.19;80.32;100799.94;5547734;32;33265;-57
2022/10/15 07:24:00;;;;;;;31.90;22.73;;;;;;;13.30;79.43;100791.47;5546555;32;33723;-58
2022/10/15 07:27:03;;;;;;;32.50;23.62;;;;;;;13.26;80.00;100790.44;5565448;32;33598;-58
2022/10/15 07:30:18;;;;;;;31.40;23.33;;;;;;;13.26;80.55;100790.44;5568581;32;34333;-58
2022/10/15 07:33:20;;;;;;;27.08;21.45;;;;;;;13.22;81.63;100786.69;5553314;32;34343;-58
2022/10/15 07:36:25;;;;;;;33.72;21.58;;;;;;;13.40;80.02;100783.25;5555859;31;33582;-58
2022/10/15 07:39:27;;;;;;;29.83;21.20;;;;;;;13.57;78.99;100782.75;5555014;32;33594;-58
2022/10/15 07:42:29;;;;;;;30.30;20.52;;;;;;;13.55;79.82;100774.19;5561823;32;33701;-58
2022/10/15 07:45:33;;;;;;;27.15;21.62;;;;;;;13.74;78.71;100782.28;5549056;32;33941;-58
2022/10/15 07:48:36;;;;;;;32.58;21.23;;;;;;;13.76;78.40;100784.69;5550105;32;33641;-58
2022/10/15 07:51:38;;;;;;;28.35;22.23;;;;;;;13.72;79.05;100784.47;5549736;32;33709;-58
2022/10/15 07:54:40;;;;;;;32.05;21.33;;;;;;;13.66;79.18;100785.63;5557352;31;33295;-58
2022/10/15 07:57:43;;;;;;;30.02;21.25;;;;;;;13.78;79.03;100786.00;5566430;31;33659;-58
2022/10/15 08:00:45;;;;;;;30.80;22.70;;;;;;;13.89;78.10;100781.25;5549265;31;34392;-58
2022/10/15 08:03:48;;;;;;;27.58;22.52;;;;;;;13.87;78.04;100786.13;5552963;32;34488;-58
2022/10/15 08:06:50;;;;;;;31.85;20.65;;;;;;;13.74;79.29;100794.94;5553935;32;33639;-58
2022/10/15 08:09:52;;;;;;;31.27;21.73;;;;;;;13.85;80.50;100791.81;5549507;32;34274;-58
2022/10/15 08:12:54;;;;;;;27.92;21.35;;;;;;;13.99;78.66;100786.50;5554817;32;34915;-58
2022/10/15 08:15:57;;;;;;;26.33;20.48;;;;;;;13.99;79.21;100799.16;5564788;32;33745;-58
2022/10/15 08:19:01;;;;;;;39.60;22.45;;;;;;;14.03;79.76;100794.78;5556007;32;33579;-57
2022/10/15 08:22:04;;;;;;;30.48;20.95;;;;;;;14.28;78.07;100799.78;5568181;32;34398;-58
2022/10/15 08:25:07;;;;;;;28.08;18.70;;;;;;;14.28;77.61;100807.09;5552731;32;34392;-58
2022/10/15 08:28:09;;;;;;;25.10;19.23;;;;;;;14.41;77.30;100811.72;5551075;32;33538;-58
2022/10/15 08:31:12;;;;;;;26.70;17.70;;;;;;;14.43;77.70;100798.72;5548964;32;33608;-58
2022/10/15 08:34:15;;;;;;;22.25;16.58;;;;;;;14.53;77.34;100800.47;5549630;32;33794;-57
2022/10/15 08:37:17;;;;;;;25.10;16.65;;;;;;;14.54;77.45;100802.09;5555967;32;33725;-58
2022/10/15 08:40:21;;;;;;;25.67;15.82;;;;;;;14.60;76.56;100802.78;5553990;32;33611;-58
2022/10/15 08:43:29;;;;;;;24.33;16.00;;;;;;;14.65;75.93;100797.31;5571940;31;34235;-58
2022/10/15 08:46:43;;;;;;;25.17;16.27;;;;;;;14.79;74.76;100795.44;5554218;32;33837;-58
2022/10/15 08:49:49;;;;;;;21.12;16.33;;;;;;;14.99;73.49;100797.75;5546609;32;34396;-58
2022/10/15 08:52:53;;;;;;;23.58;17.10;;;;;;;14.82;75.18;100797.53;5552835;32;34284;-58
2022/10/15 08:56:02;;;;;;;26.17;15.90;;;;;;;14.91;74.54;100794.97;5547325;32;34249;-58
2022/10/15 08:59:27;;;;;;;20.10;15.80;;;;;;;14.94;74.51;100797.88;5548690;32;33630;-58
2022/10/15 09:02:46;;;;;;;23.62;13.95;;;;;;;15.10;73.51;100792.97;5548106;32;33665;-58
2022/10/15 09:06:04;;;;;;;20.80;13.68;;;;;;;15.19;74.69;100795.75;5557600;32;33245;-58
2022/10/15 09:09:29;;;;;;;21.35;14.63;;;;;;;15.33;71.23;100793.88;5557032;32;34489;-58
2022/10/15 09:12:40;;;;;;;22.58;14.75;;;;;;;15.41;71.45;100797.75;5548196;32;33693;-58
2022/10/15 09:16:04;;;;;;;21.80;14.43;;;;;;;15.39;72.69;100791.84;5555144;31;34266;-58
2022/10/15 09:19:16;;;;;;;18.92;13.85;;;;;;;15.37;71.48;100802.16;5558461;32;33674;-58
2022/10/15 09:22:25;;;;;;;21.77;14.07;;;;;;;15.34;72.83;100811.66;5557014;32;34363;-58
2022/10/15 09:25:35;;;;;;;23.00;14.55;;;;;;;15.36;72.38;100814.06;5553640;31;33753;-58
2022/10/15 09:28:55;;;;;;;20.95;13.68;;;;;;;15.39;72.71;100816.94;5565406;32;34464;-58
2022/10/15 09:32:32;;;;;;;20.25;13.23;;;;;;;15.43;72.52;100817.97;5555613;32;32243;-58
2022/10/15 09:35:44;;;;;;;23.23;13.93;;;;;;;15.51;71.99;100816.44;5551146;32;34448;-58
2022/10/15 09:39:10;;;;;;;22.65;14.02;;;;;;;15.62;71.12;100807.00;5547879;31;33326;-58
2022/10/15 09:42:21;;;;;;;;;;;;;;;15.62;71.53;100811.62;5550364;32;33725;-58
2022/10/15 09:45:24;;;;;;;18.25;12.70;;;;;;;15.66;72.13;100807.19;5557848;31;34528;-58
2022/10/15 09:48:29;;;;;;;24.42;12.90;;;;;;;15.65;72.39;100808.31;5569487;31;33337;-57
2022/10/15 09:51:52;;;;;;;17.30;12.32;;;;;;;15.80;72.06;100810.72;5558414;32;33460;-58
2022/10/15 09:55:40;;;;;;;19.92;13.32;;;;;;;15.94;71.73;100816.09;5552998;32;34413;-58
2022/10/15 09:59:00;;;;;;;18.70;11.90;;;;;;;15.92;71.33;100805.56;5564428;32;34037;-58
2022/10/15 10:02:22;;;;;;;18.30;12.18;;;;;;;16.04;71.49;100807.75;5555697;32;33951;-58
2022/10/15 10:05:31;;;;;;;16.90;11.35;;;;;;;16.15;70.98;100806.37;5551212;32;33539;-57
2022/10/15 10:08:38;;;;;;;19.60;11.55;;;;;;;16.19;71.81;100798.44;5560176;32;33752;-58
2022/10/15 10:11:55;;;;;;;15.48;11.12;;;;;;;16.20;70.22;100798.16;5553131;32;33619;-58
2022/10/15 10:15:20;;;;;;;26.73;11.65;;;;;;;16.21;70.29;100788.12;5556783;32;34885;-58
2022/10/15 10:18:24;;;;;;;15.80;11.05;;;;;;;16.29;72.18;100778.47;5551297;32;33612;-58
2022/10/15 10:21:32;;;;;;;14.60;10.55;;;;;;;16.35;70.68;100786.16;5561890;31;32227;-58
2022/10/15 10:24:34;;;;;;;12.63;9.20;;;;;;;16.38;69.44;100788.25;5557166;31;34234;-58
2022/10/15 10:27:44;;;;;;;14.70;9.82;;;;;;;16.35;69.33;100788.84;5561766;32;33749;-58
2022/10/15 10:30:55;;;;;;;15.68;9.77;;;;;;;16.38;69.58;100784.75;5562963;32;33719;-58
2022/10/15 10:34:02;;;;;;;12.80;8.57;;;;;;;16.44;68.11;100787.00;5555810;32;33695;-58
2022/10/15 10:37:06;;;;;;;10.93;9.60;;;;;;;16.46;68.42;100781.31;5555822;32;33729;-58
2022/10/15 10:40:35;;;;;;;13.70;9.25;;;;;;;16.49;67.95;100769.84;5549545;32;34363;-58
2022/10/15 10:43:51;;;;;;;15.55;8.00;;;;;;;16.63;68.11;100775.19;5562434;32;33736;-58
2022/10/15 10:47:09;;;;;;;17.67;8.35;;;;;;;16.67;67.75;100765.31;5558312;32;34436;-58
2022/10/15 10:50:33;;;;;;;17.08;7.87;;;;;;;16.73;67.11;100755.16;5552003;32;34404;-58
2022/10/15 10:53:48;;;;;;;11.30;7.43;;;;;;;16.92;63.90;100753.03;5549973;32;33683;-58
2022/10/15 10:56:52;;;;;;;12.00;8.10;;;;;;;16.93;64.22;100748.41;5561180;32;34259;-58
2022/10/15 10:59:55;;;;;;;14.05;7.57;;;;;;;17.05;64.76;100743.19;5553858;32;33781;-58
2022/10/15 11:02:58;;;;;;;14.70;7.78;;;;;;;17.10;63.47;100749.25;5550256;31;34033;-58
2022/10/15 11:06:06;;;;;;;11.35;7.57;;;;;;;17.14;62.52;100744.00;5552812;31;33814;-58
2022/10/15 11:09:17;;;;;;;12.98;7.37;;;;;;;17.16;63.67;100739.09;5562153;32;33760;-58
2022/10/15 11:12:48;;;;;;;17.25;7.10;;;;;;;17.18;62.13;100736.84;5547818;32;33644;-58
2022/10/15 11:16:19;;;;;;;12.77;6.93;;;;;;;17.27;60.87;100739.56;5559460;32;33503;-58
2022/10/15 11:19:36;;;;;;;13.23;6.85;;;;;;;17.41;59.97;100732.09;5556355;32;33502;-58
2022/10/15 11:23:11;;;;;;;12.57;7.10;;;;;;;17.33;62.26;100724.75;5547246;32;33730;-58
2022/10/15 11:26:43;;;;;;;9.70;6.87;;;;;;;17.38;60.51;100725.41;5549453;32;33867;-58
2022/10/15 11:30:33;;;;;;;10.93;6.45;;;;;;;17.38;60.50;100721.87;5551944;32;33767;-58
2022/10/15 11:33:44;;;;;;;13.90;6.68;;;;;;;17.41;60.60;100710.41;5550376;32;33582;-58
2022/10/15 11:37:04;;;;;;;10.57;6.70;;;;;;;17.45;60.62;100697.03;5549817;32;34470;-58
2022/10/15 11:40:33;;;;;;;12.88;7.00;;;;;;;17.42;61.72;100694.94;5548553;32;33857;-58
2022/10/15 11:43:52;;;;;;;52.38;9.15;;;;;;;17.41;61.48;100691.44;5553532;32;33682;-58
2022/10/15 11:47:23;;;;;;;10.25;7.40;;;;;;;17.43;61.21;100689.22;5546911;32;34225;-58
